Time;durP1;ratioP1;P1;durP2;ratioP2;P2;SDS_P1;SDS_P2;PMS_P1;PMS_P2;Temp;Humidity;BMP_temperature;BMP_pressure;BME280_temperature;BME280_humidity;BME280_pressure;Samples;Min_cycle;Max_cycle;Signal;HPM_P1;HPM_P2
2022/09/27 00:00:28;;;;;;;2.77;2.43;;;10.90;99.90;;;;;;5000759;28;20257;-87
2022/09/27 00:02:53;;;;;;;2.57;2.30;;;10.80;99.90;;;;;;5019168;28;20210;-88
2022/09/27 00:05:19;;;;;;;3.93;2.40;;;10.80;99.90;;;;;;5012131;28;20193;-88
2022/09/27 00:07:45;;;;;;;2.37;2.17;;;10.80;99.90;;;;;;5015671;28;20716;-86
2022/09/27 00:10:11;;;;;;;2.13;2.03;;;10.80;99.90;;;;;;5019329;28;20186;-86
2022/09/27 00:12:38;;;;;;;2.43;2.10;;;10.80;99.90;;;;;;5016373;28;20221;-87
2022/09/27 00:15:05;;;;;;;3.00;2.50;;;10.80;99.90;;;;;;5016355;28;20210;-87
2022/09/27 00:17:31;;;;;;;2.60;2.40;;;10.80;99.90;;;;;;5020629;28;20192;-86
2022/09/27 00:19:58;;;;;;;2.17;2.00;;;10.80;99.90;;;;;;5013731;28;20178;-87
2022/09/27 00:22:25;;;;;;;2.50;2.30;;;10.80;99.90;;;;;;5016282;28;20209;-86
2022/09/27 00:24:51;;;;;;;2.10;1.90;;;10.80;99.90;;;;;;5018412;28;20190;-87
2022/09/27 00:27:17;;;;;;;2.87;2.30;;;10.80;99.90;;;;;;5014829;28;20197;-86
2022/09/27 00:29:44;;;;;;;2.30;2.10;;;10.80;99.90;;;;;;5019079;28;20196;-86
2022/09/27 00:32:11;;;;;;;2.90;2.50;;;10.80;99.90;;;;;;5013852;28;20205;-86
2022/09/27 00:34:37;;;;;;;3.17;2.50;;;10.80;99.90;;;;;;5013412;28;20682;-86
2022/09/27 00:37:03;;;;;;;3.77;2.10;;;10.80;99.90;;;;;;5032553;28;20249;-86
2022/09/27 00:39:28;;;;;;;2.40;2.20;;;10.90;99.90;;;;;;5013723;28;20201;-86
2022/09/27 00:41:54;;;;;;;3.03;2.10;;;10.90;99.90;;;;;;5019972;28;20775;-87
2022/09/27 00:44:54;;;;;;;2.20;2.10;;;11.00;99.90;;;;;;5014801;28;20190;-88
2022/09/27 00:47:27;;;;;;;4.40;2.20;;;11.00;99.90;;;;;;5017148;28;20194;-87
2022/09/27 00:50:12;;;;;;;2.50;2.30;;;11.00;99.90;;;;;;5017978;28;20187;-87
2022/09/27 00:52:51;;;;;;;4.30;2.17;;;11.00;99.90;;;;;;5017613;28;20215;-87
2022/09/27 00:55:22;;;;;;;2.67;2.23;;;10.90;99.90;;;;;;5017629;28;20189;-87
2022/09/27 00:57:49;;;;;;;2.10;2.00;;;11.00;99.90;;;;;;5013199;28;20189;-86
2022/09/27 01:00:15;;;;;;;2.33;2.13;;;11.10;99.90;;;;;;5014673;28;20191;-88
2022/09/27 01:02:45;;;;;;;3.67;2.27;;;11.00;99.90;;;;;;5011224;28;20261;-87
2022/09/27 01:05:13;;;;;;;2.40;2.20;;;11.10;99.90;;;;;;5013263;28;20197;-86
2022/09/27 01:07:39;;;;;;;2.93;2.37;;;11.10;99.90;;;;;;5020014;28;20197;-86
2022/09/27 01:10:06;;;;;;;2.40;2.17;;;11.10;99.90;;;;;;5015547;28;20340;-86
2022/09/27 01:12:46;;;;;;;3.77;2.07;;;11.20;99.90;;;;;;5012564;28;20355;-86
2022/09/27 01:15:39;;;;;;;3.20;1.97;;;11.10;99.90;;;;;;5029826;28;20187;-86
2022/09/27 01:18:22;;;;;;;2.07;1.90;;;11.10;99.90;;;;;;5018616;28;20244;-86
2022/09/27 01:21:13;;;;;;;2.07;1.87;;;11.20;99.90;;;;;;5016299;28;20235;-87
2022/09/27 01:23:57;;;;;;;2.30;2.10;;;11.10;99.90;;;;;;5019557;28;20205;-86
2022/09/27 01:26:52;;;;;;;2.10;1.90;;;11.10;99.90;;;;;;5017206;28;20182;-86
2022/09/27 01:29:41;;;;;;;2.27;1.90;;;11.10;99.90;;;;;;5018245;28;20186;-88
2022/09/27 01:32:21;;;;;;;3.03;2.20;;;11.00;99.90;;;;;;5017296;28;20224;-87
2022/09/27 01:34:54;;;;;;;2.27;1.80;;;11.10;99.90;;;;;;5013625;28;20192;-87
2022/09/27 01:37:34;;;;;;;2.90;2.13;;;11.00;99.90;;;;;;5018661;28;20224;-86
2022/09/27 01:40:10;;;;;;;1.80;1.70;;;11.00;99.90;;;;;;5019506;28;20681;-88
2022/09/27 01:42:52;;;;;;;2.20;2.00;;;11.00;99.90;;;;;;5013807;28;20249;-88
2022/09/27 01:45:20;;;;;;;2.07;1.77;;;11.00;99.90;;;;;;5018207;28;20665;-87
2022/09/27 01:48:00;;;;;;;3.20;1.90;;;11.00;99.90;;;;;;5006018;28;20206;-89
2022/09/27 01:50:38;;;;;;;3.20;1.90;;;10.90;99.90;;;;;;5021051;28;20225;-86
2022/09/27 01:53:20;;;;;;;3.03;2.10;;;10.90;99.90;;;;;;5020762;28;20304;-88
2022/09/27 01:55:48;;;;;;;2.20;2.07;;;10.90;99.90;;;;;;5033080;28;20232;-89
2022/09/27 01:58:21;;;;;;;2.53;2.17;;;10.80;99.90;;;;;;5038354;28;20244;-89
2022/09/27 02:00:49;;;;;;;2.43;2.20;;;10.80;99.90;;;;;;5034650;28;20260;-87
2022/09/27 02:03:20;;;;;;;2.20;2.00;;;10.80;99.90;;;;;;5016883;28;20185;-86
2022/09/27 02:05:54;;;;;;;3.10;2.13;;;10.70;99.90;;;;;;5017074;28;20178;-88
2022/09/27 02:08:37;;;;;;;3.30;2.10;;;10.70;99.90;;;;;;5015428;28;20193;-87
2022/09/27 02:11:08;;;;;;;2.50;2.30;;;10.70;99.90;;;;;;5008120;28;20206;-87
2022/09/27 02:13:53;;;;;;;4.13;2.40;;;10.60;99.90;;;;;;5033269;28;20232;-89
2022/09/27 02:16:22;;;;;;;3.70;2.40;;;10.70;99.90;;;;;;5029975;28;20189;-87
2022/09/27 02:18:55;;;;;;;3.73;2.30;;;10.80;99.90;;;;;;5013266;28;20196;-87
2022/09/27 02:21:30;;;;;;;3.10;2.30;;;10.80;99.90;;;;;;5018852;28;20200;-88
2022/09/27 02:23:59;;;;;;;5.50;2.53;;;10.80;99.90;;;;;;5013495;28;20301;-87
2022/09/27 02:26:41;;;;;;;3.73;2.90;;;10.70;99.90;;;;;;5016914;28;20190;-88
2022/09/27 02:29:17;;;;;;;5.03;2.50;;;10.80;99.90;;;;;;4997760;28;20285;-87
2022/09/27 02:31:43;;;;;;;4.87;2.80;;;10.70;99.90;;;;;;5012657;28;20216;-87
2022/09/27 02:34:18;;;;;;;2.77;2.57;;;10.70;99.90;;;;;;5011012;28;20225;-86
2022/09/27 02:36:44;;;;;;;4.20;2.73;;;10.70;99.90;;;;;;5015711;28;20645;-87
2022/09/27 02:39:11;;;;;;;6.70;2.87;;;10.80;99.90;;;;;;5016776;28;20257;-86
2022/09/27 02:41:37;;;;;;;3.07;2.60;;;10.80;99.90;;;;;;5014080;28;20292;-87
2022/09/27 02:44:07;;;;;;;4.83;2.80;;;10.90;99.90;;;;;;5012681;28;20232;-88
2022/09/27 02:46:42;;;;;;;3.73;2.57;;;10.80;99.90;;;;;;5017944;28;20189;-86
2022/09/27 02:49:15;;;;;;;5.47;2.83;;;10.80;99.90;;;;;;5014760;28;20189;-87
2022/09/27 02:52:15;;;;;;;4.70;3.30;;;10.80;99.90;;;;;;5012946;28;20343;-86
2022/09/27 02:54:50;;;;;;;7.10;2.73;;;10.80;99.90;;;;;;5016374;28;20288;-86
2022/09/27 02:57:44;;;;;;;4.40;3.40;;;10.80;99.90;;;;;;5017763;28;20210;-86
2022/09/27 03:00:19;;;;;;;5.53;2.97;;;10.80;99.90;;;;;;5012494;28;20197;-87
2022/09/27 03:03:08;;;;;;;5.70;3.40;;;10.80;99.90;;;;;;5015081;28;20284;-86
2022/09/27 03:05:48;;;;;;;4.27;3.17;;;10.80;99.90;;;;;;5015261;28;20550;-86
2022/09/27 03:08:14;;;;;;;6.40;3.60;;;10.80;99.90;;;;;;5014593;28;20801;-86
2022/09/27 03:10:40;;;;;;;5.47;3.03;;;10.90;99.90;;;;;;5020222;28;20187;-87
2022/09/27 03:13:06;;;;;;;5.17;2.90;;;10.80;99.90;;;;;;5016429;28;20870;-86
2022/09/27 03:15:32;;;;;;;4.70;3.30;;;10.80;99.90;;;;;;5018275;28;20186;-87
2022/09/27 03:17:57;;;;;;;6.43;3.50;;;10.80;99.90;;;;;;5017078;28;20258;-86
2022/09/27 03:20:23;;;;;;;7.67;3.47;;;10.80;99.90;;;;;;5017527;28;20253;-87
2022/09/27 03:22:49;;;;;;;7.87;3.97;;;10.70;99.90;;;;;;5014824;28;20217;-87
2022/09/27 03:25:15;;;;;;;8.83;3.90;;;10.80;99.90;;;;;;5033704;28;20609;-87
2022/09/27 03:27:40;;;;;;;8.83;3.70;;;10.80;99.90;;;;;;5023243;28;20191;-86
2022/09/27 03:30:07;;;;;;;6.10;3.27;;;10.70;99.90;;;;;;5028977;28;20202;-86
2022/09/27 03:32:32;;;;;;;5.73;3.57;;;10.80;99.90;;;;;;5031893;28;20524;-89
2022/09/27 03:34:58;;;;;;;7.00;3.77;;;10.70;99.90;;;;;;5020372;28;20245;-89
2022/09/27 03:37:25;;;;;;;7.63;3.73;;;10.80;99.90;;;;;;5024860;28;20260;-87
2022/09/27 03:39:51;;;;;;;8.03;3.63;;;10.80;99.90;;;;;;5012088;28;20645;-88
2022/09/27 03:42:17;;;;;;;6.37;3.87;;;10.80;99.90;;;;;;5014359;28;20218;-86
2022/09/27 03:44:42;;;;;;;8.00;3.53;;;10.60;99.90;;;;;;5010396;28;20201;-86
2022/09/27 03:47:08;;;;;;;6.00;3.63;;;10.60;99.90;;;;;;5003324;28;20261;-86
2022/09/27 03:49:34;;;;;;;5.23;3.70;;;10.70;99.90;;;;;;5013280;28;20460;-86
2022/09/27 03:52:00;;;;;;;4.40;3.70;;;10.70;99.90;;;;;;5016039;28;20221;-87
2022/09/27 03:54:25;;;;;;;6.27;3.90;;;10.60;99.90;;;;;;5012484;28;20286;-88
2022/09/27 03:56:51;;;;;;;6.60;4.03;;;10.60;99.90;;;;;;5016274;28;20198;-86
2022/09/27 03:59:17;;;;;;;9.10;4.00;;;10.60;99.90;;;;;;5017680;28;20188;-87
2022/09/27 04:01:44;;;;;;;4.87;3.23;;;10.60;99.90;;;;;;5013829;28;20218;-86
2022/09/27 04:04:09;;;;;;;9.67;3.90;;;10.60;99.90;;;;;;5014178;28;20723;-87
2022/09/27 04:06:35;;;;;;;8.13;3.20;;;10.60;99.90;;;;;;5016014;28;20193;-87
2022/09/27 04:09:01;;;;;;;6.57;3.47;;;10.70;99.90;;;;;;5012992;28;20191;-86
2022/09/27 04:11:27;;;;;;;6.70;3.33;;;10.70;99.90;;;;;;5017300;28;20219;-86
2022/09/27 04:13:55;;;;;;;7.37;3.40;;;10.70;99.90;;;;;;5015980;28;20202;-87
2022/09/27 04:16:21;;;;;;;5.43;3.53;;;10.60;99.90;;;;;;5011039;28;20276;-85
2022/09/27 04:18:47;;;;;;;7.97;3.30;;;10.70;99.90;;;;;;5010992;28;20186;-86
2022/09/27 04:21:13;;;;;;;7.00;3.13;;;10.70;99.90;;;;;;5015906;28;20681;-86
2022/09/27 04:23:38;;;;;;;7.43;3.90;;;10.60;99.90;;;;;;5008744;28;20620;-86
2022/09/27 04:26:05;;;;;;;4.87;3.37;;;10.50;99.90;;;;;;5013216;28;20198;-86
2022/09/27 04:28:30;;;;;;;5.27;3.43;;;10.50;99.90;;;;;;5013812;28;20191;-86
2022/09/27 04:30:56;;;;;;;4.00;3.00;;;10.60;99.90;;;;;;5015624;28;20197;-86
2022/09/27 04:33:22;;;;;;;6.50;3.10;;;10.50;99.90;;;;;;5008148;28;20890;-86
2022/09/27 04:38:33;;;;;;;8.70;3.17;;;10.50;99.90;;;;;;5014703;28;20229;-86
2022/09/27 04:41:00;;;;;;;7.50;3.50;;;10.60;99.90;;;;;;5016752;28;20553;-85
2022/09/27 04:43:27;;;;;;;6.17;2.93;;;10.60;99.90;;;;;;5013992;28;20313;-86
2022/09/27 04:45:52;;;;;;;5.27;3.40;;;10.70;99.90;;;;;;5010683;28;20209;-86
2022/09/27 04:48:18;;;;;;;5.07;3.20;;;10.60;99.90;;;;;;5012973;28;20586;-86
2022/09/27 04:50:44;;;;;;;3.73;3.00;;;10.60;99.90;;;;;;5015786;28;20186;-86
2022/09/27 04:53:14;;;;;;;6.23;3.53;;;10.60;99.90;;;;;;5012900;28;20219;-87
2022/09/27 04:55:43;;;;;;;6.90;3.10;;;10.60;99.90;;;;;;5014681;28;20185;-86
2022/09/27 04:58:08;;;;;;;4.80;3.40;;;10.70;99.90;;;;;;5015841;28;20186;-86
2022/09/27 05:00:35;;;;;;;4.87;3.23;;;10.60;99.90;;;;;;5019213;28;20218;-89
2022/09/27 05:03:00;;;;;;;4.60;2.90;;;10.60;99.90;;;;;;5037318;28;20213;-89
2022/09/27 05:05:26;;;;;;;6.03;2.70;;;10.70;99.90;;;;;;5026569;28;20558;-87
2022/09/27 05:07:52;;;;;;;3.30;2.60;;;10.60;99.90;;;;;;5015192;28;20190;-87
2022/09/27 05:10:18;;;;;;;4.27;2.70;;;10.60;99.90;;;;;;5022676;28;20190;-86
2022/09/27 05:12:44;;;;;;;6.97;3.27;;;10.60;99.90;;;;;;4994894;28;20209;-86
2022/09/27 05:15:10;;;;;;;6.30;3.33;;;10.50;99.90;;;;;;5014743;28;20249;-87
2022/09/27 05:17:35;;;;;;;4.87;2.77;;;10.50;99.90;;;;;;5024769;28;20215;-87
2022/09/27 05:20:02;;;;;;;4.40;2.97;;;10.50;99.90;;;;;;5015920;28;20194;-87
2022/09/27 05:22:28;;;;;;;5.13;2.80;;;10.40;99.90;;;;;;5017520;28;20212;-86
2022/09/27 05:24:54;;;;;;;6.40;2.80;;;10.40;99.90;;;;;;5013264;28;20203;-87
2022/09/27 05:27:20;;;;;;;4.33;2.90;;;10.40;99.90;;;;;;5011995;28;20260;-86
2022/09/27 05:29:46;;;;;;;3.47;2.70;;;10.40;99.90;;;;;;5011111;28;20199;-86
2022/09/27 05:32:12;;;;;;;4.70;2.13;;;10.40;99.90;;;;;;5017563;28;20209;-88
2022/09/27 05:34:38;;;;;;;4.77;2.33;;;10.40;99.90;;;;;;5017881;28;20323;-87
2022/09/27 05:37:04;;;;;;;3.50;2.70;;;10.30;99.90;;;;;;5016648;28;20348;-87
2022/09/27 05:39:29;;;;;;;3.40;2.43;;;10.30;99.90;;;;;;5017659;28;20216;-86
2022/09/27 05:41:56;;;;;;;4.13;2.47;;;10.30;99.90;;;;;;5032224;28;21368;-88
2022/09/27 05:44:22;;;;;;;2.53;2.27;;;10.30;99.90;;;;;;5044615;28;20189;-90
2022/09/27 05:46:48;;;;;;;3.63;2.50;;;10.30;99.90;;;;;;5035756;28;20217;-90
2022/09/27 05:49:14;;;;;;;2.77;2.27;;;10.40;99.90;;;;;;5026273;28;20213;-87
2022/09/27 05:51:40;;;;;;;5.30;2.50;;;10.30;99.90;;;;;;5016644;28;20282;-86
2022/09/27 05:54:05;;;;;;;4.23;2.10;;;10.30;99.90;;;;;;5015634;28;20242;-87
2022/09/27 05:56:31;;;;;;;3.83;2.20;;;10.20;99.90;;;;;;5014212;28;20242;-86
2022/09/27 05:58:57;;;;;;;5.97;2.40;;;10.20;99.90;;;;;;5019175;28;20204;-87
2022/09/27 06:01:25;;;;;;;4.03;2.20;;;10.30;99.90;;;;;;5022364;28;20209;-87
2022/09/27 06:03:52;;;;;;;6.43;2.30;;;10.40;99.90;;;;;;5017121;28;20194;-89
2022/09/27 06:06:18;;;;;;;2.20;1.97;;;10.30;99.90;;;;;;5025729;28;20193;-86
2022/09/27 06:08:44;;;;;;;2.43;1.87;;;10.20;99.90;;;;;;5014785;28;20190;-86
2022/09/27 06:11:11;;;;;;;2.43;2.20;;;10.20;99.90;;;;;;4998280;28;20265;-88
2022/09/27 06:13:41;;;;;;;2.80;2.00;;;10.10;99.90;;;;;;5018512;28;20269;-87
2022/09/27 06:16:10;;;;;;;2.77;2.03;;;10.10;99.90;;;;;;5020320;28;20189;-87
2022/09/27 06:18:36;;;;;;;2.30;1.83;;;10.10;99.90;;;;;;5021378;28;20192;-87
2022/09/27 06:21:03;;;;;;;1.80;1.70;;;10.20;99.90;;;;;;5020624;28;20205;-87
2022/09/27 06:23:33;;;;;;;1.77;1.60;;;10.20;99.90;;;;;;5013898;28;20186;-87
2022/09/27 06:26:03;;;;;;;2.03;1.73;;;10.10;99.90;;;;;;5013860;28;20191;-87
2022/09/27 06:28:30;;;;;;;2.17;1.97;;;10.10;99.90;;;;;;5020012;28;20208;-87
2022/09/27 06:30:56;;;;;;;4.03;1.97;;;10.10;99.90;;;;;;5018059;28;20208;-87
2022/09/27 06:33:21;;;;;;;2.00;1.80;;;10.10;99.90;;;;;;5014410;28;20214;-88
2022/09/27 06:35:48;;;;;;;2.60;1.90;;;10.00;99.90;;;;;;5020074;28;20200;-87
2022/09/27 06:38:16;;;;;;;6.43;1.80;;;10.00;99.90;;;;;;5029438;28;20186;-88
2022/09/27 06:40:44;;;;;;;4.33;1.83;;;10.10;99.90;;;;;;5009846;28;20221;-87
2022/09/27 06:43:12;;;;;;;2.10;1.90;;;10.00;99.90;;;;;;5015924;28;20190;-86
2022/09/27 06:45:38;;;;;;;1.70;1.60;;;10.10;99.90;;;;;;5021386;28;20213;-88
2022/09/27 06:48:05;;;;;;;2.20;1.60;;;10.10;99.90;;;;;;5019942;28;20188;-89
2022/09/27 06:50:33;;;;;;;1.77;1.67;;;10.10;99.90;;;;;;5013232;28;20189;-89
2022/09/27 06:52:59;;;;;;;2.40;1.77;;;10.10;99.90;;;;;;5015334;28;20222;-89
2022/09/27 06:55:25;;;;;;;2.20;1.70;;;10.10;99.90;;;;;;5017091;28;20741;-88
2022/09/27 07:00:41;;;;;;;1.97;1.87;;;10.10;99.90;;;;;;5017356;28;20362;-89
2022/09/27 07:03:10;;;;;;;1.77;1.67;;;10.20;99.90;;;;;;5022587;28;20188;-89
2022/09/27 07:05:36;;;;;;;3.03;1.70;;;10.20;99.90;;;;;;5018835;28;20194;-89
2022/09/27 07:08:03;;;;;;;2.40;1.90;;;10.20;99.90;;;;;;5021677;28;20192;-88
2022/09/27 07:10:32;;;;;;;3.27;1.80;;;10.20;99.90;;;;;;5017976;28;20186;-88
2022/09/27 07:13:06;;;;;;;1.97;1.70;;;10.20;99.90;;;;;;5014134;28;20594;-88
2022/09/27 07:15:35;;;;;;;2.07;1.70;;;10.30;99.90;;;;;;5018609;28;20185;-88
2022/09/27 07:18:02;;;;;;;2.80;1.90;;;10.20;99.90;;;;;;5018294;28;20189;-88
2022/09/27 07:20:28;;;;;;;3.03;1.80;;;10.20;99.90;;;;;;5015509;28;20217;-88
2022/09/27 07:22:54;;;;;;;3.80;1.70;;;10.20;99.90;;;;;;5015930;28;20239;-88
2022/09/27 07:25:20;;;;;;;3.33;1.80;;;10.30;99.90;;;;;;5017117;28;20289;-88
2022/09/27 07:27:46;;;;;;;2.83;2.50;;;10.40;99.90;;;;;;5015703;28;20198;-88
2022/09/27 07:30:13;;;;;;;2.33;1.70;;;10.40;99.90;;;;;;5019850;28;20241;-89
2022/09/27 07:32:39;;;;;;;1.67;1.57;;;10.30;99.90;;;;;;5019772;28;20218;-87
2022/09/27 07:35:07;;;;;;;2.40;1.90;;;10.30;99.90;;;;;;5032243;28;20186;-88
2022/09/27 07:37:34;;;;;;;2.07;1.87;;;10.40;99.90;;;;;;5034640;28;20245;-88
2022/09/27 07:40:01;;;;;;;3.53;2.10;;;10.50;99.90;;;;;;5030482;28;20229;-88
2022/09/27 07:42:28;;;;;;;2.83;2.03;;;10.60;99.90;;;;;;5018401;28;20604;-88
2022/09/27 07:44:57;;;;;;;1.70;1.60;;;10.70;99.90;;;;;;5017111;28;20561;-89
2022/09/27 07:47:23;;;;;;;2.33;1.97;;;10.70;99.90;;;;;;5017949;28;20186;-89
2022/09/27 07:49:52;;;;;;;2.30;2.00;;;10.70;99.90;;;;;;5025497;28;20173;-89
2022/09/27 07:52:19;;;;;;;2.57;1.93;;;10.90;99.90;;;;;;5036257;28;20218;-89
2022/09/27 07:54:47;;;;;;;2.30;2.10;;;10.80;99.90;;;;;;5032728;28;20230;-89
2022/09/27 07:57:14;;;;;;;3.90;2.13;;;10.90;99.90;;;;;;5018460;28;20223;-89
2022/09/27 07:59:40;;;;;;;2.23;1.93;;;10.90;99.90;;;;;;5020284;28;20589;-90
2022/09/27 08:02:18;;;;;;;2.77;2.00;;;10.80;99.90;;;;;;5014479;28;20220;-89
2022/09/27 08:04:45;;;;;;;3.77;2.03;;;10.70;99.90;;;;;;5012868;28;20195;-89
2022/09/27 08:07:12;;;;;;;2.50;2.27;;;10.80;99.90;;;;;;5011670;28;20198;-89
2022/09/27 08:09:37;;;;;;;3.07;2.10;;;10.80;99.90;;;;;;5016922;28;20672;-89
2022/09/27 08:12:03;;;;;;;2.60;2.20;;;10.80;99.90;;;;;;5016036;28;20209;-89
2022/09/27 08:14:30;;;;;;;3.33;2.33;;;10.80;99.90;;;;;;5017296;28;20688;-89
2022/09/27 08:16:55;;;;;;;2.70;2.50;;;10.80;99.90;;;;;;5012218;28;20216;-89
2022/09/27 08:19:22;;;;;;;2.63;2.43;;;11.00;99.90;;;;;;5010163;28;20270;-89
2022/09/27 08:21:50;;;;;;;2.97;2.43;;;11.00;99.90;;;;;;5016282;28;20241;-89
2022/09/27 08:24:15;;;;;;;2.40;2.20;;;11.10;99.90;;;;;;5014322;28;20187;-89
2022/09/27 08:26:41;;;;;;;5.30;2.53;;;11.20;99.90;;;;;;5016820;28;20725;-89
2022/09/27 08:29:07;;;;;;;2.63;2.43;;;11.40;99.90;;;;;;5015316;28;20334;-89
2022/09/27 08:31:35;;;;;;;7.07;2.63;;;11.30;99.90;;;;;;5011809;28;20210;-91
2022/09/27 08:34:01;;;;;;;2.87;2.50;;;11.30;99.90;;;;;;5014537;28;20365;-89
2022/09/27 08:36:27;;;;;;;3.20;2.30;;;11.20;99.90;;;;;;5016633;28;20252;-88
2022/09/27 08:38:56;;;;;;;4.37;2.60;;;11.10;99.90;;;;;;5016905;28;20185;-89
2022/09/27 08:41:28;;;;;;;3.10;2.60;;;11.10;99.90;;;;;;5017278;28;20204;-89
2022/09/27 08:44:05;;;;;;;4.53;2.30;;;11.30;99.90;;;;;;5015382;28;20182;-89
2022/09/27 08:47:05;;;;;;;3.30;2.70;;;11.50;99.90;;;;;;5014324;28;20250;-90
2022/09/27 08:49:45;;;;;;;7.60;3.00;;;11.60;99.90;;;;;;5011677;28;20179;-89
2022/09/27 08:52:29;;;;;;;6.17;3.13;;;11.60;99.90;;;;;;5005850;28;20229;-89
2022/09/27 08:54:57;;;;;;;3.93;3.33;;;11.60;99.90;;;;;;5012883;28;20224;-89
2022/09/27 08:57:24;;;;;;;4.70;3.40;;;11.50;99.90;;;;;;5010233;28;20183;-89
2022/09/27 09:00:01;;;;;;;3.63;3.13;;;11.40;99.90;;;;;;5011676;28;20658;-89
2022/09/27 09:02:27;;;;;;;5.17;3.47;;;11.30;99.90;;;;;;5013168;28;20218;-89
2022/09/27 09:04:57;;;;;;;5.63;3.60;;;11.30;99.90;;;;;;5014420;28;20197;-89
2022/09/27 09:07:54;;;;;;;4.97;3.60;;;11.50;99.90;;;;;;5014823;28;20244;-88
2022/09/27 09:13:56;;;;;;;4.63;3.37;;;11.70;99.90;;;;;;5012607;28;20288;-89
2022/09/27 09:16:34;;;;;;;4.13;3.73;;;11.80;99.90;;;;;;5015261;28;20199;-89
2022/09/27 09:19:23;;;;;;;6.17;3.97;;;12.00;99.90;;;;;;5009223;28;20175;-88
2022/09/27 09:22:15;;;;;;;3.80;3.03;;;12.20;99.60;;;;;;5013782;28;20213;-88
2022/09/27 09:24:56;;;;;;;5.00;3.57;;;12.30;99.00;;;;;;5013459;28;20180;-88
2022/09/27 09:27:30;;;;;;;4.17;3.70;;;12.30;99.90;;;;;;5010106;28;20257;-89
2022/09/27 09:30:04;;;;;;;4.50;3.10;;;12.20;99.20;;;;;;5011235;28;20187;-89
2022/09/27 09:32:38;;;;;;;5.47;3.47;;;11.90;99.40;;;;;;5012674;28;20207;-88
2022/09/27 09:35:12;;;;;;;4.47;3.00;;;11.90;99.90;;;;;;5013265;28;20223;-88
2022/09/27 09:37:43;;;;;;;3.67;2.90;;;11.90;99.90;;;;;;5016620;28;20613;-87
2022/09/27 09:40:23;;;;;;;5.03;3.00;;;11.90;99.90;;;;;;5011590;28;20196;-88
2022/09/27 09:43:00;;;;;;;5.17;3.03;;;11.70;99.90;;;;;;5006994;28;20691;-89
2022/09/27 09:45:30;;;;;;;4.00;2.83;;;11.60;99.90;;;;;;5012719;28;20182;-89
2022/09/27 09:48:07;;;;;;;3.63;2.67;;;11.50;99.90;;;;;;5007404;28;20192;-89
2022/09/27 09:50:41;;;;;;;2.97;2.67;;;11.60;99.90;;;;;;5009548;28;20574;-88
2022/09/27 09:53:28;;;;;;;4.17;2.83;;;11.50;99.90;;;;;;5006637;28;20297;-88
2022/09/27 09:56:06;;;;;;;5.17;3.00;;;11.50;99.90;;;;;;5006726;28;20185;-89
2022/09/27 09:58:50;;;;;;;5.53;3.00;;;11.40;99.90;;;;;;5010415;28;20182;-89
2022/09/27 10:01:37;;;;;;;8.03;6.80;;;11.20;99.90;;;;;;5004308;28;20237;-89
2022/09/27 10:04:03;;;;;;;2.90;2.60;;;11.30;99.90;;;;;;5012193;28;20289;-88
2022/09/27 10:06:30;;;;;;;7.73;3.43;;;11.30;99.90;;;;;;5009875;28;20291;-89
2022/09/27 10:08:56;;;;;;;3.43;2.93;;;11.40;99.90;;;;;;4999899;28;20219;-89
2022/09/27 10:11:23;;;;;;;5.30;3.80;;;11.40;99.90;;;;;;5001627;28;20227;-88
2022/09/27 10:13:50;;;;;;;5.30;3.67;;;11.50;99.90;;;;;;5007546;28;20208;-88
2022/09/27 10:16:18;;;;;;;8.53;6.47;;;11.50;99.90;;;;;;5007642;28;20183;-88
2022/09/27 10:18:45;;;;;;;6.37;3.73;;;11.40;99.90;;;;;;5013384;28;20185;-88
2022/09/27 10:21:27;;;;;;;5.43;4.27;;;11.40;99.90;;;;;;5010584;28;20219;-88
2022/09/27 10:24:15;;;;;;;4.57;4.03;;;11.50;99.90;;;;;;5008352;28;20184;-87
2022/09/27 10:26:43;;;;;;;9.50;5.13;;;11.60;99.90;;;;;;5006259;28;20211;-88
2022/09/27 10:29:30;;;;;;;7.30;5.23;;;11.70;99.90;;;;;;5011204;28;20241;-88
2022/09/27 10:31:58;;;;;;;3.20;2.90;;;11.70;99.90;;;;;;5013429;28;20227;-88
2022/09/27 10:34:34;;;;;;;3.47;2.80;;;11.40;99.90;;;;;;5016722;28;20219;-87
2022/09/27 10:37:12;;;;;;;3.20;2.90;;;11.10;99.90;;;;;;5016209;28;20185;-88
2022/09/27 10:39:42;;;;;;;2.50;2.27;;;10.90;99.90;;;;;;5027449;28;20226;-86
2022/09/27 10:42:32;;;;;;;1.83;1.60;;;10.60;99.90;;;;;;5020711;28;20753;-86
2022/09/27 10:45:31;;;;;;;1.87;1.77;;;10.50;99.90;;;;;;5007968;28;20641;-87
2022/09/27 10:47:59;;;;;;;1.60;1.50;;;10.30;99.90;;;;;;5008786;28;20241;-88
2022/09/27 10:50:27;;;;;;;1.43;1.33;;;10.10;99.90;;;;;;5012201;28;20201;-88
2022/09/27 10:53:22;;;;;;;1.53;1.30;;;9.90;99.90;;;;;;5010344;28;20271;-88
2022/09/27 10:55:51;;;;;;;1.47;1.37;;;9.80;99.90;;;;;;5016900;28;20228;-89
2022/09/27 10:58:36;;;;;;;1.50;1.40;;;9.60;99.90;;;;;;5009237;28;20190;-88
2022/09/27 11:01:06;;;;;;;1.43;1.30;;;9.50;99.90;;;;;;5007216;28;20209;-88
2022/09/27 11:03:36;;;;;;;1.70;1.60;;;9.50;99.90;;;;;;5008277;28;20227;-88
2022/09/27 11:06:18;;;;;;;1.67;1.57;;;9.40;99.90;;;;;;5011064;28;20787;-89
2022/09/27 11:08:47;;;;;;;1.50;1.40;;;9.40;99.90;;;;;;5015186;28;20244;-87
2022/09/27 11:11:13;;;;;;;1.53;1.43;;;9.50;99.90;;;;;;5016113;28;20712;-88
2022/09/27 11:13:39;;;;;;;1.77;1.67;;;9.50;99.90;;;;;;5015367;28;20234;-87
2022/09/27 11:16:28;;;;;;;1.40;1.40;;;9.40;99.90;;;;;;5014922;28;20185;-88
2022/09/27 11:19:12;;;;;;;1.60;1.50;;;9.50;99.90;;;;;;5011425;28;20198;-87
2022/09/27 11:21:57;;;;;;;1.83;1.60;;;9.40;99.90;;;;;;5012667;28;20240;-88
2022/09/27 11:24:31;;;;;;;1.40;1.30;;;9.40;99.90;;;;;;5011949;28;20191;-88
2022/09/27 11:27:15;;;;;;;1.37;1.37;;;9.40;99.90;;;;;;5017156;28;20755;-88
2022/09/27 11:29:44;;;;;;;2.33;1.50;;;9.40;99.90;;;;;;5013351;28;20213;-87
2022/09/27 11:32:18;;;;;;;1.33;1.33;;;9.40;99.90;;;;;;5015087;28;20512;-88
2022/09/27 11:35:30;;;;;;;1.60;1.50;;;9.50;99.90;;;;;;5011833;28;20181;-87
2022/09/27 11:38:17;;;;;;;2.10;1.90;;;9.50;99.90;;;;;;5013561;28;20320;-87
2022/09/27 11:41:02;;;;;;;3.87;1.80;;;9.50;99.90;;;;;;5024059;28;20196;-86
2022/09/27 11:43:31;;;;;;;2.27;1.67;;;9.50;99.90;;;;;;5026392;28;20196;-86
2022/09/27 11:46:34;;;;;;;1.97;1.87;;;9.50;99.90;;;;;;5022361;28;20205;-87
2022/09/27 11:49:24;;;;;;;1.57;1.47;;;9.70;99.90;;;;;;5015038;28;20197;-87
2022/09/27 11:52:09;;;;;;;1.93;1.70;;;9.70;99.90;;;;;;5014394;28;20561;-88
2022/09/27 11:54:46;;;;;;;3.10;1.80;;;9.80;99.90;;;;;;5010634;28;20251;-88
2022/09/27 11:57:25;;;;;;;1.60;1.50;;;9.90;99.90;;;;;;5009269;28;20197;-87
2022/09/27 12:00:23;;;;;;;1.50;1.40;;;10.10;99.90;;;;;;5012698;28;20181;-88
2022/09/27 12:03:16;;;;;;;2.20;1.93;;;10.30;99.90;;;;;;5020044;28;20214;-88
2022/09/27 12:06:04;;;;;;;1.73;1.60;;;10.50;99.90;;;;;;5017331;28;20236;-88
2022/09/27 12:08:50;;;;;;;1.60;1.50;;;10.40;99.90;;;;;;5015336;28;20186;-87
2022/09/27 12:11:29;;;;;;;2.37;1.80;;;10.40;99.90;;;;;;5015267;28;20236;-87
2022/09/27 12:14:04;;;;;;;1.73;1.63;;;10.30;99.90;;;;;;5023672;28;20200;-88
2022/09/27 12:16:31;;;;;;;2.00;1.90;;;10.10;99.90;;;;;;5020367;28;20503;-87
2022/09/27 12:18:59;;;;;;;2.90;1.77;;;10.20;99.90;;;;;;5013137;28;20227;-87
2022/09/27 12:21:29;;;;;;;1.90;1.80;;;10.40;99.90;;;;;;5014944;28;20206;-87
2022/09/27 12:23:59;;;;;;;3.17;1.80;;;10.60;99.90;;;;;;5024347;28;20190;-88
2022/09/27 12:26:34;;;;;;;2.20;1.90;;;10.80;99.90;;;;;;5007391;28;20561;-88
2022/09/27 12:29:35;;;;;;;2.33;1.90;;;10.80;99.90;;;;;;5022224;28;20704;-87
2022/09/27 12:32:28;;;;;;;2.40;2.20;;;11.00;99.90;;;;;;5016225;28;20229;-89
2022/09/27 12:35:03;;;;;;;1.90;1.80;;;11.20;99.90;;;;;;5013629;28;20323;-87
2022/09/27 12:37:36;;;;;;;1.80;1.70;;;11.10;99.90;;;;;;5018198;28;20187;-87
2022/09/27 12:40:23;;;;;;;2.07;1.70;;;11.00;99.90;;;;;;5022314;28;20194;-87
2022/09/27 12:43:19;;;;;;;2.20;1.97;;;11.20;99.90;;;;;;5018476;28;20233;-87
2022/09/27 12:46:03;;;;;;;2.80;1.93;;;11.40;99.90;;;;;;5016189;28;20206;-87
2022/09/27 12:49:04;;;;;;;3.00;2.27;;;11.40;99.90;;;;;;5020811;28;20188;-87
2022/09/27 12:51:36;;;;;;;2.13;1.60;;;11.60;99.90;;;;;;5013950;28;20207;-88
2022/09/27 12:54:13;;;;;;;2.97;2.00;;;11.60;99.90;;;;;;5010078;28;20211;-87
2022/09/27 12:57:21;;;;;;;3.77;2.20;;;11.60;99.90;;;;;;5014122;28;20210;-87
2022/09/27 13:00:13;;;;;;;2.30;2.10;;;11.40;99.90;;;;;;5010541;28;20333;-87
2022/09/27 13:02:57;;;;;;;2.63;2.17;;;11.50;99.90;;;;;;5013475;28;20208;-87
2022/09/27 13:05:56;;;;;;;2.00;1.80;;;11.50;99.90;;;;;;5011207;28;20187;-87
2022/09/27 13:08:44;;;;;;;2.00;1.90;;;11.40;99.90;;;;;;5012539;28;20183;-87
2022/09/27 13:11:16;;;;;;;2.13;1.93;;;11.40;99.90;;;;;;5017569;28;20234;-87
2022/09/27 13:13:42;;;;;;;2.00;1.90;;;11.70;99.90;;;;;;5018610;28;20205;-87
2022/09/27 13:16:08;;;;;;;1.83;1.70;;;11.80;99.90;;;;;;5012581;28;20206;-88
2022/09/27 13:18:34;;;;;;;2.10;1.90;;;11.90;99.90;;;;;;5015515;28;20231;-87
2022/09/27 13:21:02;;;;;;;1.90;1.80;;;11.90;99.90;;;;;;5016972;28;20191;-89
2022/09/27 13:23:29;;;;;;;3.63;2.17;;;11.90;99.90;;;;;;5005008;28;20196;-88